Etusivu
METAR-TAF:

METAR-TAF

Lentoasemat :

Utsunomiya, Japani

Leveyspiiri: 36-31N, Pituuspiiri: 139-52E, korkeus merenpinnasta: 102 m

Tämänhetkinen sää

Tämä raportti tehtiin 2 tuntia ja 42 minuuttia sitten, kello 05.28 UTC
Tuuli 1 kn eri suunnista
Lämpötila 15°C
Kosteus 48%
Ilmanpaine 1020 hPa
Näkyvyys 10 km tai enemmän
Muutamia pilviä 3000 ft:n korkeudessa
Hajonneita pilviä 3500 ft:n korkeudessa
heikkoa sadetta

METAR: RJTU 130528Z VRB01KT 9999 -RA FEW030 BKN035 15/04 Q1020 RMK 1SC030 7SC035 A3012

Aika: 17:10 (08:10 UTC)


TAF: puuttuu

Säähavainnot ja -ennusteet yli 4000 lentoasemalta (METAR- ja TAF-raportit).

Käytössä olevat sääasemat on merkitty karttaan keltaisilla ja punaisilla pisteillä.

Aseta hiiri pisteen päälle nähdäksesi sääaseman nimen.

Klikkaa sitten nähdäksesi säähavainnot ja -ennusteet.

Kartan vaihtaminen: klikkaa mustalla rastilla varustettuja vihreitä pisteitä, niin voit zoomata sisään; viivalla varustettua vihreää pistettä, niin voit zoomata ulos tai vihreitä nuolia, niin pääset viereisille kartoille.


METAR-TAF: